Time;durP1;ratioP1;P1;durP2;ratioP2;P2;SDS_P1;SDS_P2;PMS_P1;PMS_P2;Temp;Humidity;BMP_temperature;BMP_pressure;BME280_temperature;BME280_humidity;BME280_pressure;Samples;Min_cycle;Max_cycle;Signal;HPM_P1;HPM_P2
2023/05/08 00:00:00;;;;;;;5.73;3.03;;;;;;;13.80;63.98;97318.88;5065799;28;20189;-70
2023/05/08 00:02:32;;;;;;;4.83;3.23;;;;;;;13.80;64.27;97318.88;5052592;28;20303;-71
2023/05/08 00:04:59;;;;;;;4.53;3.47;;;;;;;13.77;64.63;97319.03;5046170;28;20244;-70
2023/05/08 00:07:26;;;;;;;2.73;2.33;;;;;;;13.83;64.70;97323.91;5046342;28;20220;-70
2023/05/08 00:09:53;;;;;;;4.07;2.90;;;;;;;13.96;64.31;97317.13;5047088;28;20235;-71
2023/05/08 00:12:20;;;;;;;6.70;3.17;;;;;;;14.02;64.29;97318.53;5057394;28;20202;-69
2023/05/08 00:14:47;;;;;;;6.70;3.53;;;;;;;13.70;64.69;97315.91;5052506;28;20213;-70
2023/05/08 00:17:14;;;;;;;6.17;3.60;;;;;;;13.39;66.23;97312.44;5070178;28;20191;-70
2023/05/08 00:19:41;;;;;;;4.17;3.37;;;;;;;13.41;66.81;97302.78;5070865;28;20190;-70
2023/05/08 00:22:08;;;;;;;5.27;3.53;;;;;;;13.37;66.42;97303.88;5070181;28;20188;-70
2023/05/08 00:24:35;;;;;;;5.80;4.13;;;;;;;13.19;67.70;97300.47;5070348;28;20192;-69
2023/05/08 00:27:02;;;;;;;4.60;3.60;;;;;;;13.16;67.53;97310.19;5070185;28;20194;-70
2023/05/08 00:29:29;;;;;;;5.70;3.80;;;;;;;13.21;67.79;97308.22;5070041;28;20238;-69
2023/05/08 00:31:56;;;;;;;4.90;3.87;;;;;;;13.17;68.24;97298.88;5070419;28;20728;-70
2023/05/08 00:34:23;;;;;;;5.30;3.70;;;;;;;13.05;68.01;97298.59;5068289;28;20187;-69
2023/05/08 00:36:51;;;;;;;4.30;3.40;;;;;;;13.15;67.55;97308.53;5069017;28;20277;-69
2023/05/08 00:39:17;;;;;;;5.37;3.97;;;;;;;13.00;66.73;97305.72;5051567;28;20626;-69
2023/05/08 00:41:44;;;;;;;4.63;3.80;;;;;;;12.83;67.45;97297.97;5070022;28;20197;-69
2023/05/08 00:44:11;;;;;;;5.80;3.60;;;;;;;12.70;67.87;97289.09;5069925;28;20198;-69
2023/05/08 00:46:41;;;;;;;4.43;3.50;;;;;;;12.93;67.52;97301.78;5068479;28;20187;-69
2023/05/08 00:49:12;;;;;;;4.30;3.63;;;;;;;13.02;66.02;97296.09;5068711;28;20220;-69
2023/05/08 00:51:41;;;;;;;5.03;3.83;;;;;;;13.18;65.71;97296.19;5069322;28;20189;-68
2023/05/08 00:54:09;;;;;;;6.57;3.63;;;;;;;13.24;65.29;97293.28;5052274;28;20765;-70
2023/05/08 00:56:37;;;;;;;5.20;3.67;;;;;;;13.18;65.41;97291.00;5069601;28;20194;-69
2023/05/08 00:59:09;;;;;;;5.57;3.53;;;;;;;13.40;64.65;97275.09;5069656;28;20191;-69
2023/05/08 01:01:37;;;;;;;4.67;3.40;;;;;;;13.59;64.37;97288.81;5069714;28;20192;-68
2023/05/08 01:04:05;;;;;;;5.63;4.20;;;;;;;13.44;64.84;97287.00;5069539;28;20190;-68
2023/05/08 01:06:36;;;;;;;4.53;4.00;;;;;;;13.60;64.16;97285.28;5068973;28;20192;-70
2023/05/08 01:09:03;;;;;;;5.27;4.07;;;;;;;13.58;64.13;97279.34;5068998;28;20223;-68
2023/05/08 01:12:01;;;;;;;4.57;3.50;;;;;;;13.71;63.63;97293.34;5068670;28;20291;-70
2023/05/08 01:15:00;;;;;;;4.57;3.70;;;;;;;13.73;63.47;97297.53;5060629;28;20203;-69
2023/05/08 01:17:53;;;;;;;3.83;3.43;;;;;;;13.76;63.63;97299.16;5065148;28;20290;-69
2023/05/08 01:20:52;;;;;;;3.27;2.97;;;;;;;13.81;63.23;97299.72;5051492;28;20562;-68
2023/05/08 01:23:25;;;;;;;5.47;3.20;;;;;;;13.63;63.55;97305.94;5067678;28;20228;-68
2023/05/08 01:26:01;;;;;;;5.67;3.37;;;;;;;13.59;63.93;97307.03;5068814;28;20276;-69
2023/05/08 01:28:56;;;;;;;3.70;3.40;;;;;;;13.44;63.60;97300.00;5068124;28;20224;-68
2023/05/08 01:31:47;;;;;;;3.87;3.47;;;;;;;13.36;64.89;97302.19;5067466;28;20684;-68
2023/05/08 01:34:22;;;;;;;6.23;3.53;;;;;;;13.54;64.28;97306.44;5068818;28;20188;-71
2023/05/08 01:36:52;;;;;;;3.50;3.20;;;;;;;13.56;64.04;97296.78;5069323;28;20193;-70
2023/05/08 01:39:28;;;;;;;5.30;3.70;;;;;;;13.54;63.87;97294.25;5066965;28;20214;-69
2023/05/08 01:42:02;;;;;;;5.30;3.70;;;;;;;13.50;63.59;97299.69;5069204;28;20218;-69
2023/05/08 01:44:36;;;;;;;5.13;3.60;;;;;;;13.17;64.04;97286.69;5068909;28;20253;-72
2023/05/08 01:47:08;;;;;;;5.87;3.80;;;;;;;13.42;63.80;97302.69;5067476;28;20852;-70
2023/05/08 01:50:06;;;;;;;4.73;4.30;;;;;;;13.42;63.86;97296.66;5061755;28;20318;-69
2023/05/08 01:52:44;;;;;;;5.13;3.80;;;;;;;13.23;64.54;97278.56;5042720;28;20685;-69
2023/05/08 01:55:25;;;;;;;6.17;3.97;;;;;;;13.11;65.85;97307.00;5048624;28;20572;-70
2023/05/08 01:57:57;;;;;;;4.40;4.00;;;;;;;12.95;66.55;97297.34;5047264;28;20241;-69
2023/05/08 02:00:27;;;;;;;5.60;4.23;;;;;;;12.96;66.30;97300.78;5048223;28;20192;-69
2023/05/08 02:02:55;;;;;;;6.07;4.00;;;;;;;12.79;66.69;97288.66;5048889;28;20202;-68
2023/05/08 02:05:25;;;;;;;7.97;4.70;;;;;;;12.63;66.94;97311.09;5046898;28;20197;-69
2023/05/08 02:07:54;;;;;;;5.10;3.90;;;;;;;12.22;67.99;97281.09;5028333;28;20303;-68
2023/05/08 02:10:23;;;;;;;6.80;4.10;;;;;;;11.90;69.28;97297.38;5040313;28;20275;-72
2023/05/08 02:12:52;;;;;;;5.00;3.70;;;;;;;11.55;70.04;97265.25;5048188;28;20196;-69
2023/05/08 02:15:20;;;;;;;4.87;4.23;;;;;;;11.66;71.30;97296.78;5047631;28;20188;-70
2023/05/08 02:17:49;;;;;;;5.57;3.60;;;;;;;11.89;70.20;97300.91;5046784;28;20185;-69
2023/05/08 02:20:19;;;;;;;4.57;3.37;;;;;;;11.82;70.16;97294.31;5047250;28;20208;-69
2023/05/08 02:22:50;;;;;;;5.37;3.63;;;;;;;11.46;71.25;97297.66;5046555;28;20182;-69
2023/05/08 02:25:18;;;;;;;5.17;3.33;;;;;;;11.03;72.59;97284.06;5048238;28;20859;-69
2023/05/08 02:27:48;;;;;;;4.80;3.27;;;;;;;11.04;73.38;97293.53;5047627;28;20360;-69
2023/05/08 02:30:18;;;;;;;4.73;4.23;;;;;;;10.96;73.66;97288.69;5046254;28;20732;-69
2023/05/08 02:32:47;;;;;;;7.13;4.10;;;;;;;10.92;74.48;97284.50;5046464;28;20195;-69
2023/05/08 02:35:17;;;;;;;7.37;4.43;;;;;;;10.86;75.11;97289.97;5045986;28;20339;-72
2023/05/08 02:37:52;;;;;;;7.27;4.43;;;;;;;10.83;75.63;97284.94;5046899;28;20372;-69
2023/05/08 02:40:21;;;;;;;6.60;3.83;;;;;;;10.87;76.19;97289.06;5047410;28;20227;-69
2023/05/08 02:42:48;;;;;;;7.13;4.20;;;;;;;10.87;76.13;97290.81;5046418;28;20215;-69
2023/05/08 02:45:15;;;;;;;7.17;4.03;;;;;;;10.77;76.81;97280.00;5046419;28;20664;-70
2023/05/08 02:47:50;;;;;;;7.50;4.30;;;;;;;10.84;76.39;97283.19;5046228;28;20198;-69
2023/05/08 02:50:23;;;;;;;4.47;3.90;;;;;;;11.05;75.24;97279.66;5047909;28;20217;-70
2023/05/08 02:52:53;;;;;;;5.07;4.07;;;;;;;11.32;73.42;97278.44;5047171;28;20669;-70
2023/05/08 02:55:42;;;;;;;4.77;4.00;;;;;;;11.45;72.64;97290.78;5046629;28;20197;-70
2023/05/08 02:58:19;;;;;;;4.77;4.03;;;;;;;11.51;72.20;97274.09;5046334;28;20190;-71
2023/05/08 03:00:57;;;;;;;4.90;3.90;;;;;;;11.62;71.77;97271.03;5047261;28;20215;-70
2023/05/08 03:03:37;;;;;;;5.83;4.07;;;;;;;11.50;71.62;97230.09;5047888;28;20189;-70
2023/05/08 03:06:10;;;;;;;6.97;4.43;;;;;;;11.88;70.29;97268.06;5045736;28;20244;-71
2023/05/08 03:08:39;;;;;;;5.73;4.30;;;;;;;11.93;70.20;97263.53;5045736;28;20284;-69
2023/05/08 03:11:15;;;;;;;6.10;4.20;;;;;;;11.70;70.06;97237.81;5047050;28;20715;-69
2023/05/08 03:13:46;;;;;;;5.13;4.17;;;;;;;11.67;70.94;97259.53;5029445;28;20244;-71
2023/05/08 03:16:23;;;;;;;4.47;3.80;;;;;;;11.89;70.23;97267.19;5046464;28;20198;-69
2023/05/08 03:18:55;;;;;;;5.47;4.23;;;;;;;12.01;69.69;97274.38;5046673;28;20200;-71
2023/05/08 03:21:27;;;;;;;5.07;3.83;;;;;;;12.16;69.16;97278.81;5047104;28;20203;-70
2023/05/08 03:23:57;;;;;;;8.20;4.10;;;;;;;11.96;69.06;97265.94;5046805;28;20209;-70
2023/05/08 03:26:25;;;;;;;6.80;3.97;;;;;;;11.72;70.22;97277.50;5051861;28;20193;-71
2023/05/08 03:28:52;;;;;;;5.50;3.73;;;;;;;11.50;71.80;97285.38;5035921;28;20694;-70
2023/05/08 03:31:25;;;;;;;5.87;3.50;;;;;;;11.59;71.35;97278.94;5025066;28;20238;-70
2023/05/08 03:33:54;;;;;;;6.27;3.60;;;;;;;11.75;71.05;97285.13;5028764;28;20202;-70
2023/05/08 03:36:23;;;;;;;4.43;3.60;;;;;;;11.87;70.84;97289.75;5042654;28;20625;-69
2023/05/08 03:38:51;;;;;;;4.37;3.80;;;;;;;12.08;69.35;97275.75;5045189;28;20659;-69
2023/05/08 03:41:18;;;;;;;5.83;4.27;;;;;;;12.05;69.62;97284.53;5042890;28;20678;-69
2023/05/08 03:43:47;;;;;;;5.67;3.87;;;;;;;12.39;68.54;97291.53;5044653;28;20676;-72
2023/05/08 03:46:16;;;;;;;4.13;3.60;;;;;;;12.54;68.23;97283.00;5040364;28;20830;-71
2023/05/08 03:48:45;;;;;;;6.27;3.27;;;;;;;12.62;67.43;97273.06;5044010;28;20190;-71
2023/05/08 03:51:14;;;;;;;7.20;4.60;;;;;;;12.49;67.78;97290.16;5045577;28;20224;-71
2023/05/08 03:53:42;;;;;;;4.90;3.80;;;;;;;12.37;68.52;97292.50;5044903;28;20761;-70
2023/05/08 03:56:09;;;;;;;6.53;3.70;;;;;;;12.63;68.65;97297.28;5045010;28;20281;-69
2023/05/08 03:58:39;;;;;;;4.77;3.73;;;;;;;12.55;69.05;97304.63;5038673;28;20208;-75
2023/05/08 04:01:17;;;;;;;4.33;3.70;;;;;;;12.36;68.86;97299.50;5030590;28;20195;-70
2023/05/08 04:04:02;;;;;;;5.73;4.10;;;;;;;12.72;68.27;97294.22;5056137;28;20303;-71
2023/05/08 04:06:58;;;;;;;5.03;3.17;;;;;;;13.02;67.52;97301.28;5064594;28;20286;-71
2023/05/08 04:09:48;;;;;;;3.37;3.07;;;;;;;13.37;66.91;97291.72;5064877;28;20277;-70
2023/05/08 04:12:20;;;;;;;5.40;3.47;;;;;;;13.76;64.65;97305.22;5065312;28;20275;-70
2023/05/08 04:14:52;;;;;;;4.50;3.40;;;;;;;13.89;64.43;97302.75;5047891;28;20293;-70
2023/05/08 04:17:32;;;;;;;3.87;3.37;;;;;;;14.16;64.79;97301.22;5066681;28;20203;-70
2023/05/08 04:20:03;;;;;;;7.53;3.23;;;;;;;14.57;62.80;97307.59;5047977;28;20213;-69
2023/05/08 04:22:32;;;;;;;4.13;3.73;;;;;;;14.57;62.41;97296.31;5065153;28;20208;-69
2023/05/08 04:25:04;;;;;;;4.17;3.53;;;;;;;14.14;63.91;97282.25;5066386;28;20195;-69
2023/05/08 04:27:31;;;;;;;3.33;3.00;;;;;;;14.14;64.45;97286.59;5064712;28;20195;-69
2023/05/08 04:30:00;;;;;;;4.27;3.30;;;;;;;14.08;64.74;97284.34;5065362;28;20239;-69
2023/05/08 04:32:33;;;;;;;7.37;3.33;;;;;;;13.84;64.64;97294.38;5064641;28;20623;-69
2023/05/08 04:35:02;;;;;;;4.57;3.63;;;;;;;13.52;66.26;97283.06;5064819;28;20180;-70
2023/05/08 04:37:30;;;;;;;6.47;3.30;;;;;;;13.59;67.04;97294.00;5064664;28;20244;-69
2023/05/08 04:40:01;;;;;;;5.33;4.07;;;;;;;13.89;65.49;97279.31;5064466;28;20196;-68
2023/05/08 04:42:32;;;;;;;4.40;3.80;;;;;;;14.12;65.17;97288.47;5066473;28;20668;-70
2023/05/08 04:45:00;;;;;;;4.80;3.57;;;;;;;14.37;64.58;97309.66;5064341;28;20187;-69
2023/05/08 04:47:28;;;;;;;6.73;3.80;;;;;;;14.71;64.66;97290.31;5066254;28;20189;-71
2023/05/08 04:49:55;;;;;;;7.27;4.03;;;;;;;15.07;62.63;97295.97;5064408;28;20227;-69
2023/05/08 04:52:22;;;;;;;7.10;3.70;;;;;;;15.12;61.23;97258.25;5064533;28;20284;-70
2023/05/08 04:54:49;;;;;;;5.03;3.47;;;;;;;15.44;59.33;97275.44;5037365;28;20212;-69
2023/05/08 04:57:16;;;;;;;4.10;3.10;;;;;;;15.46;59.45;97280.56;5048212;28;20284;-69
2023/05/08 04:59:43;;;;;;;5.23;3.57;;;;;;;15.70;58.69;97280.81;5049781;28;20197;-68
2023/05/08 05:02:14;;;;;;;4.13;3.30;;;;;;;15.72;58.34;97274.59;5049478;28;20228;-69
2023/05/08 05:04:42;;;;;;;5.73;4.57;;;;;;;15.79;57.81;97281.06;5049733;28;20689;-69
2023/05/08 05:07:09;;;;;;;7.20;3.47;;;;;;;15.81;58.62;97287.03;5047414;28;20239;-72
2023/05/08 05:09:38;;;;;;;4.73;3.37;;;;;;;15.53;58.65;97284.47;5031274;28;20243;-70
2023/05/08 05:12:06;;;;;;;6.37;3.43;;;;;;;15.87;58.08;97278.81;5049253;28;20190;-70
2023/05/08 05:14:34;;;;;;;4.97;3.80;;;;;;;15.83;57.75;97279.94;5030853;28;20194;-70
2023/05/08 05:17:01;;;;;;;4.47;3.60;;;;;;;15.92;58.25;97274.16;5047748;28;20186;-74
2023/05/08 05:19:29;;;;;;;4.63;3.67;;;;;;;16.33;57.28;97275.88;5030259;28;20203;-70
2023/05/08 05:21:56;;;;;;;9.20;4.20;;;;;;;16.47;56.24;97271.44;5048106;28;20269;-72
2023/05/08 05:24:24;;;;;;;9.87;4.20;;;;;;;16.88;55.92;97280.03;5030660;28;20282;-75
2023/05/08 05:26:51;;;;;;;6.67;3.80;;;;;;;16.87;55.55;97278.38;5044635;28;20192;-72
2023/05/08 05:29:18;;;;;;;3.93;3.50;;;;;;;17.06;55.31;97272.75;5044263;28;20763;-70
2023/05/08 05:31:45;;;;;;;5.37;3.87;;;;;;;16.89;55.14;97280.88;5045046;28;20226;-69
2023/05/08 05:34:14;;;;;;;5.37;3.80;;;;;;;16.80;56.39;97278.88;5061677;28;20208;-72
2023/05/08 05:36:41;;;;;;;5.60;3.17;;;;;;;17.08;55.82;97270.84;5030181;28;20194;-74
2023/05/08 05:39:08;;;;;;;5.90;3.37;;;;;;;17.46;54.65;97281.28;5048563;28;20188;-73
2023/05/08 05:41:42;;;;;;;4.80;3.00;;;;;;;17.55;52.79;97272.84;5030229;28;20192;-71
2023/05/08 05:44:15;;;;;;;6.77;3.43;;;;;;;17.74;53.18;97281.91;5077981;28;20190;-69
2023/05/08 05:46:44;;;;;;;3.97;2.97;;;;;;;17.66;51.80;97272.94;5048241;28;20187;-70
2023/05/08 05:49:12;;;;;;;6.80;3.00;;;;;;;18.04;51.31;97267.59;5044216;28;20272;-70
2023/05/08 05:51:40;;;;;;;7.10;3.83;;;;;;;18.43;51.15;97275.19;5055579;28;20702;-69
2023/05/08 05:54:08;;;;;;;4.97;3.83;;;;;;;18.59;48.89;97268.72;5066565;28;20251;-70
2023/05/08 05:56:35;;;;;;;4.93;3.70;;;;;;;18.64;49.08;97268.41;5051020;28;20703;-69
2023/05/08 05:59:02;;;;;;;5.70;3.33;;;;;;;18.63;49.82;97259.69;5066973;28;20197;-71
2023/05/08 06:01:30;;;;;;;3.30;3.00;;;;;;;18.87;48.76;97271.94;5067003;28;20629;-72
2023/05/08 06:03:58;;;;;;;6.87;5.00;;;;;;;19.06;48.73;97264.34;5050103;28;20622;-73
2023/05/08 06:06:26;;;;;;;6.80;3.97;;;;;;;19.39;47.83;97273.13;5050353;28;20566;-72
2023/05/08 06:08:53;;;;;;;3.93;3.00;;;;;;;19.75;46.68;97274.69;5049435;28;20199;-71
2023/05/08 06:11:22;;;;;;;4.63;3.30;;;;;;;19.73;46.10;97231.06;5067857;28;20224;-78
2023/05/08 06:13:52;;;;;;;5.37;3.77;;;;;;;19.43;47.39;97242.22;5067397;28;20192;-72
2023/05/08 06:16:23;;;;;;;5.93;3.17;;;;;;;19.55;47.58;97250.91;5066409;28;20300;-73
2023/05/08 06:18:50;;;;;;;5.80;3.40;;;;;;;20.00;46.73;97257.81;5034189;28;20189;-69
2023/05/08 06:21:17;;;;;;;4.90;3.67;;;;;;;20.17;46.69;97246.78;5068048;28;20257;-71
2023/05/08 06:23:44;;;;;;;7.07;3.00;;;;;;;19.88;45.86;97241.22;5067917;28;20284;-72
2023/05/08 06:26:11;;;;;;;4.23;2.93;;;;;;;19.94;45.59;97253.03;5068004;28;20282;-73
2023/05/08 06:28:38;;;;;;;5.07;2.53;;;;;;;20.09;44.45;97254.44;5065850;28;20300;-74
2023/05/08 06:31:08;;;;;;;3.33;2.30;;;;;;;19.73;44.14;97250.31;5068298;28;20229;-73
2023/05/08 06:33:35;;;;;;;3.67;2.70;;;;;;;19.79;45.51;97238.47;5067410;28;20181;-72
2023/05/08 06:36:05;;;;;;;4.13;2.93;;;;;;;20.09;43.05;97255.25;5067827;28;20190;-71
2023/05/08 06:38:31;;;;;;;3.37;2.20;;;;;;;19.24;43.71;97255.91;5067738;28;20192;-71
2023/05/08 06:40:58;;;;;;;3.60;2.60;;;;;;;18.89;45.04;97260.38;5066740;28;20307;-70
2023/05/08 06:43:25;;;;;;;5.83;2.60;;;;;;;18.67;45.06;97248.00;5067070;28;20655;-72
2023/05/08 06:45:55;;;;;;;4.03;2.20;;;;;;;19.01;45.96;97246.31;5066594;28;20195;-71
2023/05/08 06:48:22;;;;;;;2.90;2.27;;;;;;;19.54;43.64;97238.75;5067119;28;20488;-70
2023/05/08 06:50:50;;;;;;;4.83;2.50;;;;;;;19.84;43.48;97241.59;5066848;28;20296;-71
2023/05/08 06:53:17;;;;;;;5.50;3.50;;;;;;;20.07;42.07;97243.22;5067562;28;20189;-70
2023/05/08 06:55:44;;;;;;;4.40;2.80;;;;;;;20.00;42.11;97232.34;5068197;28;20639;-70
2023/05/08 06:58:11;;;;;;;3.73;2.50;;;;;;;20.11;43.25;97234.94;5067437;28;20196;-73
2023/05/08 07:00:38;;;;;;;3.30;2.80;;;;;;;20.37;43.70;97232.84;5068046;28;20190;-75
2023/05/08 07:03:05;;;;;;;6.00;3.30;;;;;;;20.15;43.02;97225.84;5050462;28;20267;-75
2023/05/08 07:05:32;;;;;;;9.10;3.63;;;;;;;20.24;42.83;97226.91;5067695;28;20189;-73
2023/05/08 07:07:59;;;;;;;8.13;3.33;;;;;;;20.63;42.43;97236.81;5066080;28;20193;-74
2023/05/08 07:10:27;;;;;;;9.00;3.03;;;;;;;20.70;41.66;97234.50;5065476;28;20189;-72
2023/05/08 07:12:54;;;;;;;5.13;2.77;;;;;;;20.64;41.88;97232.38;5065069;28;20262;-75
2023/05/08 07:15:22;;;;;;;4.73;3.27;;;;;;;20.65;41.92;97223.53;5066551;28;20513;-72
2023/05/08 07:17:53;;;;;;;5.07;3.10;;;;;;;20.73;41.76;97223.75;5064960;28;20197;-74
2023/05/08 07:20:20;;;;;;;8.63;4.40;;;;;;;20.59;41.25;97226.66;5066006;28;20200;-74
2023/05/08 07:22:47;;;;;;;4.73;3.73;;;;;;;20.54;42.35;97227.06;5066308;28;20605;-73
2023/05/08 07:25:15;;;;;;;9.17;5.50;;;;;;;20.84;42.09;97213.97;5066300;28;20190;-73
2023/05/08 07:27:42;;;;;;;11.73;4.10;;;;;;;20.88;41.62;97225.06;5066455;28;20211;-73
2023/05/08 07:30:10;;;;;;;5.37;2.97;;;;;;;20.57;42.20;97223.31;5066342;28;20189;-69
2023/05/08 07:32:40;;;;;;;5.20;3.13;;;;;;;20.54;42.09;97211.28;5064880;28;20614;-74
2023/05/08 07:35:09;;;;;;;7.00;4.17;;;;;;;20.51;41.93;97222.03;5066204;28;20281;-73
2023/05/08 07:37:38;;;;;;;5.37;3.73;;;;;;;20.15;42.57;97209.25;5064689;28;20626;-74
2023/05/08 07:40:06;;;;;;;4.63;2.83;;;;;;;20.17;42.85;97202.88;5065194;28;20186;-72
2023/05/08 07:42:43;;;;;;;8.57;4.03;;;;;;;20.71;42.41;97210.69;5064390;28;20264;-72
2023/05/08 07:45:11;;;;;;;7.40;3.60;;;;;;;20.93;41.49;97220.25;5066307;28;20205;-74
2023/05/08 07:47:49;;;;;;;12.43;5.03;;;;;;;20.66;41.83;97215.50;5065921;28;20637;-74
2023/05/08 07:50:16;;;;;;;6.73;3.77;;;;;;;20.63;41.64;97199.16;5064727;28;20569;-70
2023/05/08 07:52:44;;;;;;;7.77;3.50;;;;;;;20.34;42.32;97119.16;5066254;28;20311;-70
2023/05/08 07:55:12;;;;;;;4.10;3.07;;;;;;;21.39;42.74;97199.59;5065259;28;20193;-75
2023/05/08 07:57:41;;;;;;;5.23;3.33;;;;;;;21.63;40.86;97202.75;5066121;28;20193;-75
2023/05/08 08:00:10;;;;;;;11.30;4.87;;;;;;;21.75;40.01;97214.84;5065449;28;20194;-73
2023/05/08 08:02:41;;;;;;;7.20;4.20;;;;;;;22.01;40.49;97211.75;5065886;28;20181;-70
2023/05/08 08:05:09;;;;;;;7.30;4.03;;;;;;;21.85;39.68;97207.81;5065508;28;20231;-70
2023/05/08 08:07:36;;;;;;;5.43;3.13;;;;;;;21.80;40.58;97196.81;5065815;28;20209;-72
2023/05/08 08:10:04;;;;;;;8.53;3.60;;;;;;;21.78;40.04;97197.94;5066378;28;20233;-73
2023/05/08 08:12:31;;;;;;;7.87;3.10;;;;;;;21.76;40.46;97200.69;5065248;28;20235;-75
2023/05/08 08:14:58;;;;;;;4.97;3.47;;;;;;;21.78;40.91;97195.28;5066350;28;20200;-73
2023/05/08 08:17:25;;;;;;;8.63;3.90;;;;;;;22.06;39.16;97189.25;5065476;28;20236;-73
2023/05/08 08:19:55;;;;;;;5.40;3.13;;;;;;;22.14;39.25;97202.59;5065896;28;20206;-73
2023/05/08 08:22:23;;;;;;;8.20;3.67;;;;;;;21.89;40.16;97187.28;5065660;28;20668;-70
2023/05/08 08:24:50;;;;;;;4.30;3.10;;;;;;;22.03;39.88;97189.53;5066134;28;20630;-71
2023/05/08 08:27:21;;;;;;;4.67;3.07;;;;;;;22.05;40.86;97181.50;5048062;28;20202;-69
2023/05/08 08:29:49;;;;;;;5.20;3.47;;;;;;;22.17;41.12;97188.31;5065232;28;20226;-74
2023/05/08 08:32:24;;;;;;;5.93;3.77;;;;;;;22.33;40.13;97188.59;5069048;28;20219;-74
2023/05/08 08:34:51;;;;;;;8.37;3.57;;;;;;;22.29;40.31;97190.69;5069349;28;20191;-72
2023/05/08 08:37:18;;;;;;;5.03;3.30;;;;;;;22.37;40.18;97187.34;5052290;28;20199;-69
2023/05/08 08:39:47;;;;;;;2.77;2.43;;;;;;;22.25;40.86;97189.28;5048010;28;20660;-69
2023/05/08 08:42:14;;;;;;;4.10;2.80;;;;;;;22.26;40.21;97183.03;5048862;28;20238;-69
2023/05/08 08:44:41;;;;;;;5.83;2.83;;;;;;;22.27;39.35;97183.88;5048261;28;20190;-68
2023/05/08 08:47:15;;;;;;;5.83;2.73;;;;;;;22.25;39.93;97177.91;5048818;28;20219;-71
2023/05/08 08:49:48;;;;;;;3.47;2.57;;;;;;;21.81;40.93;97176.56;5049586;28;20190;-70
2023/05/08 08:52:25;;;;;;;3.70;2.57;;;;;;;21.92;40.79;97165.94;5047670;28;20226;-70
2023/05/08 08:54:55;;;;;;;4.50;2.83;;;;;;;21.85;40.40;97175.34;5049245;28;20219;-70
2023/05/08 08:57:25;;;;;;;3.87;2.43;;;;;;;21.53;41.38;97172.03;5049259;28;20244;-69
2023/05/08 08:59:53;;;;;;;7.07;2.73;;;;;;;21.38;41.88;97165.47;5048843;28;20246;-71
2023/05/08 09:02:22;;;;;;;4.87;2.70;;;;;;;21.58;41.42;97167.19;5050049;28;20703;-74
2023/05/08 09:04:49;;;;;;;5.63;2.93;;;;;;;21.41;41.83;97163.38;5048782;28;20196;-72
2023/05/08 09:07:17;;;;;;;7.53;3.40;;;;;;;21.82;41.30;97165.09;5048937;28;20553;-72
2023/05/08 09:09:45;;;;;;;5.03;3.00;;;;;;;22.03;40.91;97159.69;5047402;28;20199;-73
2023/05/08 09:12:13;;;;;;;3.63;2.73;;;;;;;22.20;40.35;97162.47;5048717;28;20228;-71
2023/05/08 09:14:40;;;;;;;4.67;2.63;;;;;;;22.10;40.28;97163.44;5048827;28;20246;-70
2023/05/08 09:17:08;;;;;;;4.17;2.60;;;;;;;22.06;40.54;97160.25;5048232;28;20210;-72
2023/05/08 09:19:35;;;;;;;5.13;3.10;;;;;;;22.06;40.73;97160.25;5049228;28;20198;-75
2023/05/08 09:22:05;;;;;;;3.97;2.87;;;;;;;22.35;40.63;97153.19;5047063;28;20231;-71
2023/05/08 09:24:58;;;;;;;5.60;3.40;;;;;;;22.08;40.65;97149.53;5047550;28;20213;-71
2023/05/08 09:27:27;;;;;;;4.27;2.70;;;;;;;22.34;40.81;97145.41;5049247;28;20594;-72
2023/05/08 09:30:05;;;;;;;3.63;2.63;;;;;;;22.05;41.25;97129.53;5048249;28;20403;-72
2023/05/08 09:32:35;;;;;;;3.23;2.70;;;;;;;22.06;41.07;97136.50;5049143;28;20306;-73
2023/05/08 09:35:04;;;;;;;5.23;3.13;;;;;;;22.30;41.12;97134.28;5048259;28;20190;-72
2023/05/08 09:37:32;;;;;;;6.70;4.20;;;;;;;22.79;40.25;97119.22;5047239;28;20251;-74
2023/05/08 09:40:13;;;;;;;5.73;3.67;;;;;;;23.01;40.85;97122.34;5048552;28;20196;-74
2023/05/08 09:42:40;;;;;;;5.13;2.90;;;;;;;22.95;39.71;97108.88;5046811;28;20692;-74
2023/05/08 09:45:09;;;;;;;3.53;2.70;;;;;;;23.17;39.25;97109.34;5048253;28;20190;-70
2023/05/08 09:47:38;;;;;;;3.97;2.63;;;;;;;23.21;39.35;97110.72;5046221;28;20187;-78
2023/05/08 09:50:08;;;;;;;7.70;4.40;;;;;;;23.11;39.75;97109.09;5048294;28;20192;-74
2023/05/08 09:52:37;;;;;;;9.17;3.50;;;;;;;23.07;40.30;97102.44;5047988;28;20601;-74
2023/05/08 09:55:07;;;;;;;3.53;2.60;;;;;;;23.34;39.38;97105.97;5046786;28;20191;-71
2023/05/08 09:57:39;;;;;;;2.30;2.10;;;;;;;22.87;40.13;97095.56;5047913;28;20190;-73
2023/05/08 10:00:11;;;;;;;2.93;2.30;;;;;;;22.98;40.61;97088.28;5048173;28;20263;-70
2023/05/08 10:02:40;;;;;;;3.87;2.47;;;;;;;23.14;40.10;97085.84;5046893;28;20197;-71
2023/05/08 10:05:25;;;;;;;11.57;3.17;;;;;;;23.22;39.73;97093.91;5047569;28;20198;-70
2023/05/08 10:07:53;;;;;;;12.70;4.00;;;;;;;23.57;39.34;97079.13;5047555;28;20183;-71
2023/05/08 10:10:29;;;;;;;4.27;2.70;;;;;;;23.28;39.42;97080.09;5047637;28;20190;-71
2023/05/08 10:12:57;;;;;;;5.17;3.03;;;;;;;23.22;40.16;97075.41;5047513;28;20310;-70
2023/05/08 10:15:28;;;;;;;3.70;2.27;;;;;;;23.12;39.47;97077.22;5047813;28;20192;-70
2023/05/08 10:18:04;;;;;;;2.80;2.50;;;;;;;22.56;40.86;97066.75;5047122;28;20588;-70
2023/05/08 10:20:34;;;;;;;6.03;2.70;;;;;;;22.37;41.75;97068.56;5048065;28;20270;-73
2023/05/08 10:23:02;;;;;;;3.40;2.50;;;;;;;22.54;40.96;97068.69;5047927;28;20560;-71
2023/05/08 10:25:35;;;;;;;4.97;2.77;;;;;;;22.42;41.29;97066.34;5046510;28;20204;-69
2023/05/08 10:28:22;;;;;;;5.40;2.33;;;;;;;22.96;40.77;97063.00;5047666;28;20255;-69
2023/05/08 10:30:54;;;;;;;2.47;1.97;;;;;;;23.05;40.01;97065.59;5047077;28;20683;-71
2023/05/08 10:33:26;;;;;;;3.03;2.20;;;;;;;23.16;39.77;97067.22;5047645;28;20214;-69
2023/05/08 10:35:57;;;;;;;4.37;2.30;;;;;;;23.10;39.86;97059.88;5047645;28;20590;-72
2023/05/08 10:38:26;;;;;;;6.07;2.70;;;;;;;23.29;39.03;97054.47;5049356;28;20627;-70
2023/05/08 10:40:56;;;;;;;3.03;2.50;;;;;;;23.24;39.78;97040.91;5046587;28;20223;-72
2023/05/08 10:43:24;;;;;;;3.37;2.57;;;;;;;23.42;39.79;97049.72;5029141;28;20189;-72
2023/05/08 10:45:56;;;;;;;8.37;2.90;;;;;;;23.54;39.27;97053.81;5047634;28;20182;-73
2023/05/08 10:48:49;;;;;;;6.03;2.70;;;;;;;23.79;39.34;97057.53;5046623;28;20196;-71
2023/05/08 10:51:25;;;;;;;3.80;2.50;;;;;;;24.24;38.87;97053.81;5047128;28;20186;-69
2023/05/08 10:54:01;;;;;;;7.03;2.50;;;;;;;24.01;38.39;97049.94;5046584;28;20186;-68
2023/05/08 10:56:28;;;;;;;2.63;2.37;;;;;;;24.08;38.62;97056.34;5046940;28;20197;-71
2023/05/08 10:58:56;;;;;;;8.00;2.80;;;;;;;24.09;38.96;97050.03;5047975;28;20220;-71
2023/05/08 11:01:25;;;;;;;2.93;2.20;;;;;;;23.98;39.00;97052.91;5047001;28;20281;-72
2023/05/08 11:03:54;;;;;;;4.23;2.80;;;;;;;23.90;39.38;97049.38;5045951;28;20226;-69
2023/05/08 11:06:45;;;;;;;4.90;2.83;;;;;;;23.88;39.87;97051.34;5046740;28;20196;-72
2023/05/08 11:09:27;;;;;;;2.50;2.30;;;;;;;23.68;39.73;97040.06;5033963;28;20292;-72
2023/05/08 11:12:07;;;;;;;6.17;3.83;;;;;;;23.67;39.62;97049.00;5045954;28;20224;-71
2023/05/08 11:14:36;;;;;;;3.60;2.50;;;;;;;23.32;40.30;97048.94;5039506;28;20271;-70
2023/05/08 11:17:04;;;;;;;6.47;2.70;;;;;;;23.42;39.91;97042.63;5066921;28;20190;-70
2023/05/08 11:19:31;;;;;;;2.23;2.03;;;;;;;23.35;40.24;97032.78;5066596;28;20226;-70
2023/05/08 11:22:24;;;;;;;4.50;2.50;;;;;;;23.47;40.01;97044.81;5065027;28;20186;-69
2023/05/08 11:24:58;;;;;;;4.07;2.23;;;;;;;22.93;40.75;97042.16;5065834;28;20204;-70
2023/05/08 11:27:35;;;;;;;4.00;2.67;;;;;;;23.18;40.33;97036.19;5066120;28;20186;-70
2023/05/08 11:30:23;;;;;;;3.60;2.50;;;;;;;23.25;40.78;97032.81;5066459;28;20220;-70
2023/05/08 11:32:58;;;;;;;6.33;2.50;;;;;;;23.31;41.00;97034.03;5066678;28;20239;-72
2023/05/08 11:35:54;;;;;;;4.60;2.40;;;;;;;23.26;39.91;97036.28;5064733;28;20184;-69
2023/05/08 11:38:35;;;;;;;7.60;2.23;;;;;;;23.21;39.82;97034.09;5065032;28;20196;-71
2023/05/08 11:41:18;;;;;;;3.50;2.30;;;;;;;23.14;41.21;97032.19;5066287;28;20274;-70
2023/05/08 11:44:04;;;;;;;4.90;2.43;;;;;;;23.27;40.63;97030.00;5056657;28;20208;-71
2023/05/08 11:47:31;;;;;;;5.03;2.27;;;;;;;23.13;40.78;97027.88;5047757;28;20203;-71
2023/05/08 11:50:51;;;;;;;4.07;2.67;;;;;;;23.08;40.81;97028.31;5046495;28;20189;-70
2023/05/08 11:53:35;;;;;;;4.37;2.40;;;;;;;23.14;43.89;97018.97;5046025;28;20220;-70